createdAt,value
2023-01-28T00:02:44.762Z,102170.91
2023-01-28T00:07:52.024Z,102171.87
2023-01-28T00:12:57.464Z,102175.77
2023-01-28T00:18:02.973Z,102174.96
2023-01-28T00:23:08.358Z,102183.34
2023-01-28T00:28:13.751Z,102186.86
2023-01-28T00:33:19.504Z,102179.36
2023-01-28T00:38:24.985Z,102183.28
2023-01-28T00:43:30.526Z,102176.73
2023-01-28T00:48:37.452Z,102182.45
2023-01-28T00:53:43.934Z,102176.29
2023-01-28T00:58:49.757Z,102185.13
2023-01-28T01:04:01.105Z,102175.34
2023-01-28T01:09:10.183Z,102180.19
2023-01-28T01:14:15.698Z,102175.34
2023-01-28T01:19:21.156Z,102166.97
2023-01-28T01:24:28.356Z,102181.52
2023-01-28T01:29:34.169Z,102179.27
2023-01-28T01:34:40.595Z,102176.11
2023-01-28T01:39:45.976Z,102174.89
2023-01-28T01:45:06.449Z,102177.55
2023-01-28T01:50:18.920Z,102173.56
2023-01-28T01:55:27.415Z,102169.61
2023-01-28T02:00:32.931Z,102169.58
2023-01-28T02:05:39.960Z,102170.84
2023-01-28T02:10:49.068Z,102172.23
2023-01-28T02:15:56.085Z,102166.93
2023-01-28T02:21:23.864Z,102170.36
2023-01-28T02:26:58.223Z,102171.23
2023-01-28T02:32:06.725Z,102168.58
2023-01-28T02:37:18.016Z,102170.35
2023-01-28T02:42:27.382Z,102166.81
2023-01-28T02:47:52.559Z,102168.50
2023-01-28T02:53:20.079Z,102168.05
2023-01-28T02:58:31.454Z,102164.05
2023-01-28T03:03:43.363Z,102167.58
2023-01-28T03:09:13.384Z,102153.40
2023-01-28T03:14:39.274Z,102157.86
2023-01-28T03:20:03.480Z,102159.83
2023-01-28T03:25:30.515Z,102167.27
2023-01-28T03:31:10.380Z,102162.36
2023-01-28T03:36:35.846Z,102156.61
2023-01-28T03:41:43.299Z,102154.52
2023-01-28T03:46:49.089Z,102151.53
2023-01-28T03:51:54.640Z,102156.73
2023-01-28T03:57:00.243Z,102154.42
2023-01-28T04:02:06.489Z,102147.99
2023-01-28T04:07:15.580Z,102154.63
2023-01-28T04:12:38.914Z,102158.50
2023-01-28T04:17:50.777Z,102155.42
2023-01-28T04:23:00.848Z,102154.63
2023-01-28T04:28:07.195Z,102153.31
2023-01-28T04:33:13.967Z,102159.42
2023-01-28T04:38:21.038Z,102162.88
2023-01-28T04:43:37.401Z,102158.17
2023-01-28T04:48:50.210Z,102165.27
2023-01-28T04:53:57.274Z,102159.48
2023-01-28T04:59:08.515Z,102160.50
2023-01-28T05:04:16.511Z,102158.17
2023-01-28T05:09:22.284Z,102156.78
2023-01-28T05:14:29.393Z,102155.95
2023-01-28T05:19:36.533Z,102152.49
2023-01-28T05:24:43.602Z,102158.59
2023-01-28T05:29:49.119Z,102156.88
2023-01-28T05:34:54.633Z,102152.85
2023-01-28T05:40:00.105Z,102156.03
2023-01-28T05:45:06.572Z,102152.44
2023-01-28T05:50:15.931Z,102147.23
2023-01-28T05:55:23.587Z,102145.48
2023-01-28T06:00:29.307Z,102146.70
2023-01-28T06:05:35.743Z,102147.23
2023-01-28T06:10:41.852Z,102152.15
2023-01-28T06:15:51.261Z,102152.59
2023-01-28T06:20:58.468Z,102160.06
2023-01-28T06:26:04.060Z,102154.80
2023-01-28T06:31:09.937Z,102152.21
2023-01-28T06:36:15.462Z,102150.91
2023-01-28T06:41:20.848Z,102156.67
2023-01-28T06:46:26.342Z,102159.72
2023-01-28T06:51:31.898Z,102158.39
2023-01-28T06:56:37.386Z,102166.31
2023-01-28T07:01:42.953Z,102167.13
2023-01-28T07:06:48.495Z,102168.45
2023-01-28T07:11:54.032Z,102164.05
2023-01-28T07:16:59.521Z,102162.28
2023-01-28T07:22:05.445Z,102174.08
2023-01-28T07:27:10.889Z,102165.64
2023-01-28T07:32:16.349Z,102169.27
2023-01-28T07:37:22.570Z,102179.37
2023-01-28T07:42:28.092Z,102173.94
2023-01-28T07:47:34.036Z,102181.50
2023-01-28T07:52:41.962Z,102177.53
2023-01-28T07:57:58.545Z,102185.80
2023-01-28T08:03:06.732Z,102191.51
2023-01-28T08:08:12.591Z,102198.12
2023-01-28T08:13:18.933Z,102202.92
2023-01-28T08:18:24.386Z,102211.59
2023-01-28T08:23:30.427Z,102211.14
2023-01-28T08:28:36.281Z,102210.70
2023-01-28T08:33:42.242Z,102216.77
2023-01-28T08:38:47.693Z,102211.59
2023-01-28T08:43:53.098Z,102215.11
2023-01-28T08:48:58.487Z,102212.58
2023-01-28T08:54:04.195Z,102224.84
2023-01-28T08:59:09.839Z,102230.88
2023-01-28T09:04:15.320Z,102234.80
2023-01-28T09:09:20.884Z,102234.70
2023-01-28T09:14:26.547Z,102245.41
2023-01-28T09:19:32.031Z,102235.59
2023-01-28T09:24:39.007Z,102235.59
2023-01-28T09:29:44.690Z,102242.60
2023-01-28T09:34:50.293Z,102242.60
2023-01-28T09:39:55.762Z,102252.31
2023-01-28T09:45:09.840Z,102256.28
2023-01-28T09:50:30.673Z,102254.52
2023-01-28T09:55:39.358Z,102252.23
2023-01-28T10:01:06.050Z,102256.59
2023-01-28T10:06:17.229Z,102256.36
2023-01-28T10:11:25.838Z,102258.13
2023-01-28T10:16:42.994Z,102254.59
2023-01-28T10:22:10.013Z,102260.31
2023-01-28T10:27:24.682Z,102258.13
2023-01-28T10:32:34.400Z,102248.59
2023-01-28T10:37:41.519Z,102248.59
2023-01-28T10:42:47.482Z,102241.88
2023-01-28T10:48:05.157Z,102247.61
2023-01-28T10:53:10.589Z,102237.06
2023-01-28T10:58:24.920Z,102234.41
2023-01-28T11:03:35.913Z,102226.42
2023-01-28T11:08:45.677Z,102212.31
2023-01-28T11:13:54.134Z,102214.00
2023-01-28T11:19:03.218Z,102214.00
2023-01-28T11:24:22.639Z,102214.52
2023-01-28T11:29:36.973Z,102200.38
2023-01-28T11:34:45.453Z,102200.38
2023-01-28T11:39:52.425Z,102205.69
2023-01-28T11:44:57.883Z,102198.63
2023-01-28T11:50:19.276Z,102196.00
2023-01-28T11:55:40.544Z,102196.84
2023-01-28T12:01:21.134Z,102195.09
2023-01-28T12:06:41.968Z,102177.58
2023-01-28T12:12:13.089Z,102191.27
2023-01-28T12:17:30.703Z,102177.63
2023-01-28T12:23:00.664Z,102172.28
2023-01-28T12:28:18.421Z,102172.28
2023-01-28T12:33:57.440Z,102164.39
2023-01-28T12:39:14.768Z,102138.33
2023-01-28T12:44:26.069Z,102151.59
2023-01-28T12:49:43.291Z,102140.60
2023-01-28T12:55:13.702Z,102133.93
2023-01-28T13:00:28.135Z,102112.66
2023-01-28T13:05:36.633Z,102123.09
2023-01-28T13:10:47.173Z,102129.23
2023-01-28T13:15:52.918Z,102119.66
2023-01-28T13:20:58.523Z,102124.84
2023-01-28T13:26:25.272Z,102119.53
2023-01-28T13:31:33.697Z,102098.34
2023-01-28T13:36:42.566Z,102096.30
2023-01-28T13:41:51.048Z,102086.55
2023-01-28T13:47:02.925Z,102073.66
2023-01-28T13:52:14.171Z,102075.36
2023-01-28T13:57:25.608Z,102085.97
2023-01-28T14:02:56.807Z,102078.97
2023-01-28T14:08:26.404Z,102070.13
2023-01-28T14:13:34.963Z,102078.61
2023-01-28T14:18:45.334Z,102114.31
2023-01-28T14:23:56.986Z,102112.13
2023-01-28T14:29:11.129Z,102127.22
2023-01-28T14:34:20.157Z,102127.22
2023-01-28T14:39:33.939Z,102104.06
2023-01-28T14:44:44.585Z,102104.06
2023-01-28T14:50:01.976Z,102108.64
2023-01-28T14:55:22.463Z,102106.42
2023-01-28T15:00:31.237Z,102110.90
2023-01-28T15:05:37.015Z,102081.91
2023-01-28T15:10:42.564Z,102098.28
2023-01-28T15:15:51.172Z,102103.12
2023-01-28T15:20:57.990Z,102116.38
2023-01-28T15:26:09.075Z,102132.27
2023-01-28T15:31:26.309Z,102140.70
2023-01-28T15:36:32.867Z,102138.08
2023-01-28T15:41:40.534Z,102150.41
2023-01-28T15:46:46.561Z,102127.55
2023-01-28T15:51:52.471Z,102140.34
2023-01-28T15:56:59.947Z,102142.14
2023-01-28T16:02:25.411Z,102108.27
2023-01-28T16:07:34.194Z,102109.19
2023-01-28T16:12:39.715Z,102120.19
2023-01-28T16:17:48.169Z,102139.55
2023-01-28T16:22:56.443Z,102145.75
2023-01-28T16:28:04.639Z,102152.78
2023-01-28T16:33:22.118Z,102141.80
2023-01-28T16:38:27.690Z,102133.00
2023-01-28T16:48:38.715Z,102144.42
2023-01-28T16:53:45.143Z,102149.73
2023-01-28T16:58:50.876Z,102148.83
2023-01-28T17:03:56.926Z,102160.28
2023-01-28T17:09:02.517Z,102159.37
2023-01-28T17:14:08.344Z,102168.63
2023-01-28T17:19:13.779Z,102162.92
2023-01-28T17:24:19.273Z,102149.71
2023-01-28T17:29:24.828Z,102138.30
2023-01-28T17:34:31.488Z,102150.61
2023-01-28T17:39:37.019Z,102140.92
2023-01-28T17:44:42.463Z,102127.73
2023-01-28T17:49:47.917Z,102117.61
2023-01-28T17:54:53.596Z,102114.55
2023-01-28T17:59:59.074Z,102115.43
2023-01-28T18:05:04.914Z,102101.34
2023-01-28T18:10:11.441Z,102115.39
2023-01-28T18:15:17.403Z,102125.96
2023-01-28T18:20:23.165Z,102131.70
2023-01-28T18:25:28.923Z,102126.86
2023-01-28T18:30:34.337Z,102124.22
2023-01-28T18:35:44.568Z,102114.55
2023-01-28T18:40:51.483Z,102128.63
2023-01-28T18:45:56.921Z,102108.38
2023-01-28T18:51:02.428Z,102119.38
2023-01-28T18:56:09.315Z,102108.80
2023-01-28T19:01:14.872Z,102110.53
2023-01-28T19:06:20.449Z,102114.03
2023-01-28T19:11:27.974Z,102119.29
2023-01-28T19:16:35.500Z,102125.00
2023-01-28T19:21:41.346Z,102121.00
2023-01-28T19:26:46.959Z,102128.89
2023-01-28T19:31:52.612Z,102122.30
2023-01-28T19:36:58.159Z,102114.37
2023-01-28T19:42:03.629Z,102128.84
2023-01-28T19:47:09.232Z,102149.01
2023-01-28T19:52:14.693Z,102148.14
2023-01-28T19:57:20.543Z,102150.38
2023-01-28T20:02:26.070Z,102134.99
2023-01-28T20:07:31.691Z,102112.62
2023-01-28T20:12:37.221Z,102103.80
2023-01-28T20:17:42.763Z,102096.80
2023-01-28T20:22:49.252Z,102093.70
2023-01-28T20:27:54.640Z,102091.05
2023-01-28T20:33:00.025Z,102085.75
2023-01-28T20:38:05.651Z,102077.42
2023-01-28T20:43:11.686Z,102067.77
2023-01-28T20:48:17.226Z,102069.09
2023-01-28T20:53:23.948Z,102073.92
2023-01-28T20:58:29.853Z,102074.80
2023-01-28T21:03:35.870Z,102070.84
2023-01-28T21:08:41.436Z,102071.73
2023-01-28T21:13:47.259Z,102082.27
2023-01-28T21:18:53.034Z,102084.42
2023-01-28T21:24:01.090Z,102078.31
2023-01-28T21:29:07.035Z,102087.09
2023-01-28T21:34:13.458Z,102077.03
2023-01-28T21:39:19.023Z,102076.55
2023-01-28T21:44:24.599Z,102065.55
2023-01-28T21:49:30.056Z,102057.23
2023-01-28T21:54:36.124Z,102054.17
2023-01-28T21:59:41.639Z,102062.93
2023-01-28T22:04:49.382Z,102063.80
2023-01-28T22:09:54.907Z,102049.94
2023-01-28T22:15:00.376Z,102038.47
2023-01-28T22:20:06.659Z,102038.87
2023-01-28T22:25:12.254Z,102030.89
2023-01-28T22:30:18.519Z,102023.89
2023-01-28T22:35:23.977Z,102011.56
2023-01-28T22:40:29.509Z,102020.34
2023-01-28T22:45:35.102Z,102024.28
2023-01-28T22:50:40.568Z,102001.06
2023-01-28T22:55:46.122Z,101976.92
2023-01-28T23:00:51.923Z,101962.91
2023-01-28T23:06:02.316Z,101968.61
2023-01-28T23:11:09.339Z,101982.64
2023-01-28T23:16:32.716Z,101986.58
2023-01-28T23:21:56.188Z,101986.59
2023-01-28T23:27:03.132Z,101964.66
2023-01-28T23:32:11.442Z,101967.72
2023-01-28T23:37:17.828Z,101952.80
2023-01-28T23:42:23.762Z,101942.70
2023-01-28T23:47:29.254Z,101945.35
2023-01-28T23:52:34.703Z,101930.89
2023-01-28T23:57:40.828Z,101920.78
